Time;durP1;ratioP1;P1;durP2;ratioP2;P2;SDS_P1;SDS_P2;PMS_P1;PMS_P2;Temp;Humidity;BMP_temperature;BMP_pressure;BME280_temperature;BME280_humidity;BME280_pressure;Samples;Min_cycle;Max_cycle;Signal;HPM_P1;HPM_P2
2023/01/10 00:01:16;;;;;;;6.40;1.65;;;;;;;3.48;100.00;99486.03;5150941;27;20104;-86
2023/01/10 00:03:43;;;;;;;4.88;1.75;;;;;;;3.54;100.00;99473.75;5131842;27;20399;-87
2023/01/10 00:06:10;;;;;;;3.75;1.60;;;;;;;3.55;100.00;99475.44;5131583;27;20719;-86
2023/01/10 00:08:37;;;;;;;8.02;1.52;;;;;;;3.67;100.00;99487.19;5128899;27;20054;-86
2023/01/10 00:13:22;;;;;;;5.88;2.28;;;;;;;3.65;100.00;99482.91;5128886;27;20103;-86
2023/01/10 00:13:55;;;;;;;6.28;1.95;;;;;;;3.55;100.00;99488.38;5145531;27;20059;-86
2023/01/10 00:16:22;;;;;;;3.72;1.35;;;;;;;3.57;100.00;99494.34;5133876;27;20046;-86
2023/01/10 00:18:49;;;;;;;4.78;1.30;;;;;;;3.72;100.00;99498.25;5134336;27;20069;-87
2023/01/10 00:21:16;;;;;;;8.40;1.50;;;;;;;3.70;100.00;99494.00;5129256;27;20051;-86
2023/01/10 00:23:43;;;;;;;4.32;1.55;;;;;;;3.91;100.00;99508.06;5132627;27;20053;-87
2023/01/10 00:26:10;;;;;;;6.05;1.40;;;;;;;3.80;100.00;99508.38;5125809;27;20517;-86
2023/01/10 00:28:38;;;;;;;4.88;1.60;;;;;;;3.73;100.00;99518.06;5137735;27;20047;-86
2023/01/10 00:31:05;;;;;;;8.30;2.10;;;;;;;3.90;100.00;99540.88;5136254;27;20073;-86
2023/01/10 00:33:34;;;;;;;7.47;1.95;;;;;;;3.83;100.00;99533.34;5155337;27;20042;-86
2023/01/10 00:36:03;;;;;;;5.72;1.60;;;;;;;3.85;100.00;99547.09;5136687;27;20039;-86
2023/01/10 00:38:30;;;;;;;6.53;1.65;;;;;;;3.94;100.00;99557.19;5132848;27;20050;-86
2023/01/10 00:40:57;;;;;;;10.20;2.40;;;;;;;3.69;100.00;99546.69;5132979;27;20054;-86
2023/01/10 00:46:10;;;;;;;8.68;2.03;;;;;;;4.14;100.00;99567.81;5148314;27;20046;-86
2023/01/10 00:48:37;;;;;;;8.30;1.80;;;;;;;4.23;100.00;99560.63;5155162;27;20047;-86
2023/01/10 00:51:04;;;;;;;5.07;1.63;;;;;;;4.21;100.00;99552.91;5135992;27;20042;-86
2023/01/10 00:53:31;;;;;;;20.20;2.42;;;;;;;4.00;100.00;99556.97;5137023;27;20381;-86
2023/01/10 00:55:57;;;;;;;11.70;2.58;;;;;;;4.18;100.00;99538.31;5136297;27;20095;-86
2023/01/10 00:58:24;;;;;;;6.18;1.77;;;;;;;4.50;100.00;99553.78;5133371;27;20050;-86
2023/01/10 01:00:51;;;;;;;9.55;2.17;;;;;;;4.46;100.00;99557.34;5132521;27;20484;-86
2023/01/10 01:03:20;;;;;;;13.98;2.50;;;;;;;4.37;100.00;99555.88;5135233;27;20049;-85
2023/01/10 01:05:47;;;;;;;7.15;1.83;;;;;;;4.48;100.00;99546.03;5136438;27;20054;-86
2023/01/10 01:08:16;;;;;;;8.52;2.35;;;;;;;4.49;100.00;99552.91;5136604;27;20507;-86
2023/01/10 01:10:43;;;;;;;8.57;2.53;;;;;;;4.44;100.00;99539.22;5147373;27;20111;-86
2023/01/10 01:13:14;;;;;;;8.20;2.33;;;;;;;4.55;100.00;99557.03;5128620;27;20043;-86
2023/01/10 01:15:40;;;;;;;5.40;1.48;;;;;;;4.31;100.00;99525.81;5132768;27;20053;-86
2023/01/10 01:18:11;;;;;;;7.25;1.50;;;;;;;4.47;100.00;99565.06;5154439;27;20051;-86
2023/01/10 01:20:39;;;;;;;11.63;2.30;;;;;;;4.44;100.00;99549.59;5134513;27;20087;-86
2023/01/10 01:23:06;;;;;;;7.70;1.77;;;;;;;4.37;100.00;99542.91;5132356;27;20100;-86
2023/01/10 01:25:33;;;;;;;7.75;2.15;;;;;;;4.25;100.00;99558.84;5135903;27;20111;-85
2023/01/10 01:27:59;;;;;;;9.68;2.08;;;;;;;4.29;100.00;99561.31;5136586;27;20054;-86
2023/01/10 01:30:26;;;;;;;8.35;1.83;;;;;;;4.20;100.00;99543.44;5130251;27;20051;-86
2023/01/10 01:32:53;;;;;;;8.32;2.30;;;;;;;4.16;100.00;99537.53;5126312;27;20118;-86
2023/01/10 01:35:20;;;;;;;9.50;2.20;;;;;;;4.20;100.00;99548.63;5134114;27;20137;-85
2023/01/10 01:37:47;;;;;;;8.90;1.80;;;;;;;3.99;100.00;99526.81;5135343;27;20103;-86
2023/01/10 01:40:16;;;;;;;12.38;2.45;;;;;;;4.11;100.00;99548.91;5134993;27;20046;-85
2023/01/10 01:42:44;;;;;;;6.40;1.83;;;;;;;4.06;100.00;99543.88;5126331;27;20380;-85
2023/01/10 01:45:14;;;;;;;10.40;1.80;;;;;;;4.07;100.00;99552.47;5135107;27;20054;-86
2023/01/10 01:47:49;;;;;;;8.07;2.13;;;;;;;4.06;100.00;99543.88;5130449;27;20053;-85
2023/01/10 01:50:18;;;;;;;9.18;2.22;;;;;;;4.03;100.00;99554.31;5153486;27;20115;-86
2023/01/10 01:52:48;;;;;;;11.73;2.53;;;;;;;3.98;100.00;99527.69;5152823;27;20046;-86
2023/01/10 01:55:14;;;;;;;10.93;1.80;;;;;;;4.12;100.00;99542.81;5135088;27;20058;-85
2023/01/10 01:57:42;;;;;;;12.35;2.70;;;;;;;4.00;100.00;99541.44;5134024;27;20050;-86
2023/01/10 02:00:10;;;;;;;4.95;1.63;;;;;;;4.11;100.00;99538.56;5136091;27;20086;-85
2023/01/10 02:02:45;;;;;;;11.65;2.00;;;;;;;4.08;100.00;99542.06;5134481;27;20046;-86
2023/01/10 02:05:28;;;;;;;8.25;1.98;;;;;;;4.03;100.00;99543.09;5129834;27;20053;-86
2023/01/10 02:07:58;;;;;;;13.10;2.80;;;;;;;4.06;100.00;99543.03;5134048;27;20049;-86
2023/01/10 02:10:44;;;;;;;8.32;2.00;;;;;;;3.99;100.00;99542.34;5114216;27;20499;-86
2023/01/10 02:13:14;;;;;;;8.20;2.20;;;;;;;3.99;100.00;99550.97;5131471;27;20042;-86
2023/01/10 02:15:40;;;;;;;15.02;2.28;;;;;;;4.23;100.00;99558.88;5133032;27;20046;-86
2023/01/10 02:18:07;;;;;;;9.27;2.20;;;;;;;4.12;100.00;99551.44;5134706;27;20500;-86
2023/01/10 02:21:04;;;;;;;9.52;2.00;;;;;;;4.11;100.00;99548.91;5147153;27;20481;-85
2023/01/10 02:23:46;;;;;;;10.50;2.70;;;;;;;4.09;100.00;99548.09;5128676;27;20104;-86
2023/01/10 02:26:39;;;;;;;11.00;2.72;;;;;;;4.24;100.00;99550.22;5126843;27;20459;-86
2023/01/10 02:29:21;;;;;;;5.00;1.75;;;;;;;4.22;100.00;99556.38;5126563;27;20047;-86
2023/01/10 02:32:06;;;;;;;9.82;1.83;;;;;;;4.15;100.00;99556.53;5123668;27;20043;-86
2023/01/10 02:34:48;;;;;;;10.68;1.90;;;;;;;4.06;100.00;99561.16;5153652;27;20703;-87
2023/01/10 02:37:43;;;;;;;7.53;1.70;;;;;;;4.21;100.00;99571.03;5151870;27;20494;-86
2023/01/10 02:40:28;;;;;;;10.63;2.25;;;;;;;4.19;100.00;99562.47;5126827;27;20051;-86
2023/01/10 02:42:55;;;;;;;10.05;2.47;;;;;;;4.23;100.00;99565.81;5124331;27;20104;-86
2023/01/10 02:45:37;;;;;;;8.70;2.05;;;;;;;4.27;100.00;99573.47;5129767;27;20092;-86
2023/01/10 02:48:04;;;;;;;6.87;2.07;;;;;;;4.26;100.00;99563.97;5119911;27;20050;-86
2023/01/10 02:50:40;;;;;;;12.82;3.13;;;;;;;4.38;100.00;99575.72;5133962;27;20323;-86
2023/01/10 02:53:12;;;;;;;9.70;2.38;;;;;;;4.39;100.00;99572.22;5126031;27;20035;-86
2023/01/10 02:56:10;;;;;;;5.50;1.48;;;;;;;4.56;100.00;99571.72;5134617;27;20081;-86
2023/01/10 02:59:14;;;;;;;13.00;3.78;;;;;;;4.45;100.00;99568.63;5134198;27;20400;-86
2023/01/10 03:02:07;;;;;;;6.68;1.80;;;;;;;4.41;100.00;99559.22;5130070;27;20606;-86
2023/01/10 03:04:50;;;;;;;8.57;2.85;;;;;;;4.40;100.00;99562.72;5132647;27;20058;-86
2023/01/10 03:07:24;;;;;;;;;;;;;;;4.34;100.00;99562.00;5152917;27;20089;-86
2023/01/10 03:10:09;;;;;;;8.13;1.83;;;;;;;4.14;100.00;99538.44;5119871;27;19942;-86
2023/01/10 03:13:00;;;;;;;7.47;1.70;;;;;;;4.32;100.00;99550.84;5133265;27;20042;-85
2023/01/10 03:15:33;;;;;;;8.50;1.70;;;;;;;4.20;100.00;99522.72;5139544;27;20050;-86
2023/01/10 03:18:03;;;;;;;9.70;2.05;;;;;;;4.20;100.00;99522.72;5120747;27;20047;-85
2023/01/10 03:20:34;;;;;;;5.55;1.45;;;;;;;4.40;100.00;99547.19;5131406;27;20428;-85
2023/01/10 03:23:04;;;;;;;9.48;2.05;;;;;;;4.25;100.00;99523.44;5146017;27;20047;-86
2023/01/10 03:25:34;;;;;;;11.73;2.25;;;;;;;4.46;100.00;99519.31;5134770;27;20051;-86
2023/01/10 03:28:09;;;;;;;7.28;1.80;;;;;;;4.53;100.00;99509.59;5137786;27;20042;-87
2023/01/10 03:30:57;;;;;;;9.65;1.83;;;;;;;4.61;100.00;99517.97;5123481;27;20056;-86
2023/01/10 03:33:28;;;;;;;12.32;1.80;;;;;;;4.62;100.00;99503.25;5118947;27;20043;-86
2023/01/10 03:36:04;;;;;;;6.55;1.83;;;;;;;4.79;100.00;99516.50;5138715;27;20103;-86
2023/01/10 03:38:45;;;;;;;6.10;1.50;;;;;;;4.69;100.00;99508.22;5133235;27;20054;-86
2023/01/10 03:41:40;;;;;;;5.93;2.40;;;;;;;4.71;100.00;99528.88;5155504;27;20050;-86
2023/01/10 03:47:23;;;;;;;8.43;2.22;;;;;;;4.67;100.00;99515.16;5145123;27;20783;-86
2023/01/10 03:49:55;;;;;;;7.25;1.70;;;;;;;4.66;100.00;99499.69;5137723;27;20483;-85
2023/01/10 03:52:23;;;;;;;11.98;2.15;;;;;;;4.63;100.00;99497.19;5136710;27;20520;-86
2023/01/10 03:54:50;;;;;;;5.38;1.55;;;;;;;4.66;100.00;99500.53;5153687;27;20046;-86
2023/01/10 03:57:20;;;;;;;12.77;2.05;;;;;;;4.55;100.00;99521.63;5134616;27;20155;-86
2023/01/10 03:59:52;;;;;;;4.90;1.42;;;;;;;4.33;100.00;99484.31;5136548;27;20400;-86
2023/01/10 04:02:20;;;;;;;7.03;1.67;;;;;;;4.22;100.00;99497.63;5136748;27;20119;-86
2023/01/10 04:04:46;;;;;;;7.30;1.63;;;;;;;4.10;100.00;99480.69;5137398;27;20107;-86
2023/01/10 04:07:13;;;;;;;7.60;2.33;;;;;;;4.26;100.00;99494.03;5154720;27;20047;-86
2023/01/10 04:09:40;;;;;;;4.68;1.58;;;;;;;4.28;100.00;99492.22;5149522;27;20047;-86
2023/01/10 04:12:06;;;;;;;9.48;1.95;;;;;;;4.49;100.00;99529.56;5137234;27;20118;-86
2023/01/10 04:14:33;;;;;;;5.63;1.52;;;;;;;4.35;100.00;99491.13;5152196;27;20047;-86
2023/01/10 04:17:00;;;;;;;7.60;2.03;;;;;;;4.21;100.00;99461.38;5137328;27;20042;-85
2023/01/10 04:19:27;;;;;;;3.13;1.40;;;;;;;4.59;100.00;99483.47;5154826;27;20053;-85
2023/01/10 04:21:53;;;;;;;5.47;1.58;;;;;;;4.47;100.00;99452.78;5135749;27;20042;-85
2023/01/10 04:24:20;;;;;;;8.10;1.88;;;;;;;4.85;100.00;99492.13;5154233;27;20045;-85
2023/01/10 04:26:47;;;;;;;6.85;1.60;;;;;;;4.72;100.00;99468.34;5156175;27;20217;-85
2023/01/10 04:29:14;;;;;;;4.97;1.60;;;;;;;4.76;100.00;99480.31;5155986;27;20070;-85
2023/01/10 04:31:40;;;;;;;9.57;2.08;;;;;;;4.96;100.00;99505.59;5129549;27;20043;-85
2023/01/10 04:34:08;;;;;;;10.65;1.83;;;;;;;5.08;100.00;99514.66;5131714;27;20039;-85
2023/01/10 04:36:35;;;;;;;3.83;1.50;;;;;;;5.06;100.00;99506.94;5137353;27;20050;-85
2023/01/10 04:39:03;;;;;;;10.90;2.03;;;;;;;4.98;100.00;99516.75;5148023;27;20043;-85
2023/01/10 04:41:30;;;;;;;4.65;1.85;;;;;;;5.04;100.00;99506.16;5135713;27;20054;-85
2023/01/10 04:43:56;;;;;;;11.05;2.20;;;;;;;4.94;100.00;99495.25;5136285;27;20087;-85
2023/01/10 04:46:23;;;;;;;7.97;1.75;;;;;;;5.10;100.00;99521.53;5126523;27;20461;-85
2023/01/10 04:48:50;;;;;;;8.32;1.65;;;;;;;5.09;100.00;99506.84;5130806;27;20594;-85
2023/01/10 04:51:17;;;;;;;8.05;2.13;;;;;;;5.14;100.00;99517.06;5134910;27;20637;-85
2023/01/10 04:53:44;;;;;;;7.95;1.70;;;;;;;5.09;100.00;99521.56;5131543;27;20062;-84
2023/01/10 04:56:18;;;;;;;8.98;1.73;;;;;;;5.13;100.00;99512.75;5136459;27;20095;-85
2023/01/10 04:58:46;;;;;;;6.53;1.55;;;;;;;5.04;100.00;99500.13;5136624;27;20072;-85
2023/01/10 05:01:19;;;;;;;9.00;1.98;;;;;;;5.16;100.00;99497.09;5120549;27;20080;-85
2023/01/10 05:03:51;;;;;;;5.70;1.42;;;;;;;5.32;100.00;99492.22;5117110;27;20168;-85
2023/01/10 05:06:18;;;;;;;7.13;1.77;;;;;;;5.24;100.00;99502.00;5126704;27;20388;-85
2023/01/10 05:08:45;;;;;;;4.28;1.30;;;;;;;5.16;100.00;99491.91;5125418;27;20400;-86
2023/01/10 05:11:12;;;;;;;4.57;1.40;;;;;;;5.09;100.00;99493.03;5128005;27;20050;-85
2023/01/10 05:13:39;;;;;;;9.25;1.75;;;;;;;5.18;100.00;99502.25;5122563;27;20039;-85
2023/01/10 05:16:07;;;;;;;5.72;1.40;;;;;;;5.19;100.00;99496.13;5132896;27;20059;-86
2023/01/10 05:18:33;;;;;;;2.33;1.20;;;;;;;5.10;100.00;99486.94;5136311;27;20054;-85
2023/01/10 05:21:07;;;;;;;5.53;1.50;;;;;;;5.12;100.00;99498.13;5131634;27;20449;-85
2023/01/10 05:23:33;;;;;;;;;;;;;;;5.10;100.00;99497.31;5134588;27;20065;-85
2023/01/10 05:26:15;;;;;;;4.53;1.50;;;;;;;4.93;100.00;99475.38;5134215;27;19928;-86
2023/01/10 05:28:42;;;;;;;7.18;1.45;;;;;;;5.05;100.00;99496.63;5151573;27;20433;-86
2023/01/10 05:31:12;;;;;;;3.80;1.27;;;;;;;4.99;100.00;99483.88;5153209;27;20046;-85
2023/01/10 05:33:39;;;;;;;4.65;1.50;;;;;;;4.94;100.00;99471.91;5130756;27;20038;-86
2023/01/10 05:36:06;;;;;;;7.35;1.60;;;;;;;4.98;100.00;99489.97;5136324;27;20045;-85
2023/01/10 05:38:33;;;;;;;13.02;2.00;;;;;;;5.04;100.00;99485.38;5132559;27;20095;-85
2023/01/10 05:41:00;;;;;;;6.22;1.80;;;;;;;5.02;100.00;99488.94;5120998;27;20039;-84
2023/01/10 05:43:27;;;;;;;6.57;1.85;;;;;;;5.14;100.00;99481.56;5145120;27;20043;-85
2023/01/10 05:45:54;;;;;;;7.30;1.90;;;;;;;5.16;100.00;99465.13;5132713;27;20054;-85
2023/01/10 05:48:21;;;;;;;8.40;1.60;;;;;;;5.17;100.00;99472.84;5143017;27;20050;-86
2023/01/10 05:50:51;;;;;;;5.43;1.75;;;;;;;5.08;100.00;99478.34;5153044;27;20047;-86
2023/01/10 05:53:18;;;;;;;5.38;1.70;;;;;;;5.07;100.00;99482.69;5127106;27;20453;-86
2023/01/10 05:55:56;;;;;;;6.43;1.88;;;;;;;5.07;100.00;99471.47;5129730;27;20069;-86
2023/01/10 05:58:23;;;;;;;6.15;1.70;;;;;;;5.13;100.00;99459.16;5146336;27;20042;-85
2023/01/10 06:00:50;;;;;;;4.88;1.30;;;;;;;5.04;100.00;99443.03;5128203;27;20140;-86
2023/01/10 06:03:18;;;;;;;6.07;1.52;;;;;;;5.04;100.00;99449.06;5153681;27;20039;-86
2023/01/10 06:05:45;;;;;;;6.50;1.60;;;;;;;5.14;100.00;99462.56;5131797;27;20045;-86
2023/01/10 06:08:14;;;;;;;5.15;1.77;;;;;;;5.04;100.00;99459.44;5121686;27;20091;-86
2023/01/10 06:10:41;;;;;;;8.07;1.80;;;;;;;5.11;100.00;99455.72;5152111;27;20051;-86
2023/01/10 06:13:08;;;;;;;6.38;1.58;;;;;;;5.16;100.00;99450.38;5153234;27;20767;-86
2023/01/10 06:15:35;;;;;;;9.45;2.15;;;;;;;5.08;100.00;99466.25;5153348;27;20096;-85
2023/01/10 06:18:03;;;;;;;6.57;1.92;;;;;;;5.05;100.00;99448.19;5134963;27;20115;-86
2023/01/10 06:20:30;;;;;;;6.70;1.83;;;;;;;5.34;100.00;99469.63;5132579;27;20827;-85
2023/01/10 06:22:59;;;;;;;6.85;1.83;;;;;;;5.22;100.00;99452.75;5128508;27;20043;-86
2023/01/10 06:25:28;;;;;;;5.45;1.60;;;;;;;5.38;100.00;99465.19;5131172;27;20043;-86
2023/01/10 06:27:55;;;;;;;5.85;2.05;;;;;;;5.33;100.00;99467.97;5153175;27;20105;-89
2023/01/10 06:30:22;;;;;;;6.70;1.73;;;;;;;5.29;100.00;99454.25;5134495;27;20066;-89
2023/01/10 06:32:48;;;;;;;6.63;1.70;;;;;;;5.24;100.00;99461.34;5133157;27;20058;-89
2023/01/10 06:35:16;;;;;;;11.13;2.45;;;;;;;5.16;100.00;99445.19;5152102;27;20055;-88
2023/01/10 06:37:43;;;;;;;10.43;1.90;;;;;;;5.13;100.00;99453.09;5130919;27;20066;-88
2023/01/10 06:40:10;;;;;;;8.48;2.80;;;;;;;5.17;100.00;99469.41;5133230;27;20043;-89
2023/01/10 06:42:39;;;;;;;11.27;2.00;;;;;;;5.13;100.00;99464.34;5130817;27;20047;-86
2023/01/10 06:45:07;;;;;;;8.80;1.98;;;;;;;5.09;100.00;99454.09;5126101;27;20049;-87
2023/01/10 06:47:34;;;;;;;9.30;2.28;;;;;;;4.97;100.00;99451.94;5125796;27;20046;-86
2023/01/10 06:50:01;;;;;;;7.78;2.10;;;;;;;5.04;100.00;99437.84;5129218;27;20411;-86
2023/01/10 06:52:27;;;;;;;9.18;2.03;;;;;;;5.01;100.00;99437.97;5129175;27;20050;-86
2023/01/10 06:54:54;;;;;;;13.68;3.50;;;;;;;4.84;100.00;99416.06;5135089;27;20499;-86
2023/01/10 06:57:21;;;;;;;17.00;3.53;;;;;;;4.65;100.00;99391.66;5131429;27;20046;-86
2023/01/10 06:59:48;;;;;;;7.72;1.90;;;;;;;4.81;100.00;99385.03;5133423;27;20054;-86
2023/01/10 07:02:15;;;;;;;10.90;2.65;;;;;;;4.83;100.00;99378.03;5128362;27;20046;-86
2023/01/10 07:04:41;;;;;;;7.47;2.33;;;;;;;4.75;100.00;99362.78;5145857;27;20069;-86
2023/01/10 07:07:10;;;;;;;10.63;2.38;;;;;;;4.86;100.00;99403.03;5124761;27;20050;-86
2023/01/10 07:09:37;;;;;;;10.52;2.50;;;;;;;4.55;100.00;99353.13;5148804;27;20046;-86
2023/01/10 07:12:04;;;;;;;17.80;3.00;;;;;;;4.98;100.00;99394.00;5129816;27;20054;-86
2023/01/10 07:14:31;;;;;;;13.07;3.67;;;;;;;4.86;100.00;99367.56;5126124;27;20396;-85
2023/01/10 07:16:57;;;;;;;13.48;2.97;;;;;;;5.22;100.00;99419.00;5128079;27;20046;-85
2023/01/10 07:19:24;;;;;;;15.43;4.13;;;;;;;4.85;100.00;99376.28;5133882;27;20042;-86
2023/01/10 07:21:51;;;;;;;10.85;2.80;;;;;;;4.87;100.00;99360.63;5127722;27;20085;-86
2023/01/10 07:24:18;;;;;;;12.82;3.25;;;;;;;4.91;100.00;99375.19;5129762;27;20050;-86
2023/01/10 07:26:44;;;;;;;13.50;4.03;;;;;;;4.90;100.00;99361.38;5123634;27;20069;-87
2023/01/10 07:29:11;;;;;;;17.80;4.35;;;;;;;5.18;100.00;99364.72;5126719;27;20371;-86
2023/01/10 07:31:38;;;;;;;19.05;4.75;;;;;;;5.22;100.00;99369.72;5131194;27;20450;-88
2023/01/10 07:34:05;;;;;;;11.20;2.80;;;;;;;5.31;100.00;99386.69;5145678;27;20073;-87
2023/01/10 07:36:34;;;;;;;12.77;2.70;;;;;;;4.93;100.00;99311.13;5154938;27;20399;-88
2023/01/10 07:39:04;;;;;;;7.00;2.30;;;;;;;5.38;100.00;99379.53;5127429;27;20047;-88
2023/01/10 07:41:31;;;;;;;16.52;3.65;;;;;;;5.04;100.00;99334.09;5129291;27;20054;-88
2023/01/10 07:43:58;;;;;;;17.67;3.92;;;;;;;4.97;100.00;99320.50;5134980;27;20034;-87
2023/01/10 07:46:25;;;;;;;16.73;4.05;;;;;;;5.01;100.00;99329.88;5135963;27;20052;-86
2023/01/10 07:48:52;;;;;;;21.80;5.95;;;;;;;5.01;100.00;99316.03;5153795;27;20095;-88
2023/01/10 07:51:18;;;;;;;16.02;4.25;;;;;;;5.40;100.00;99351.75;5153081;27;20078;-87
2023/01/10 07:53:46;;;;;;;16.50;4.05;;;;;;;5.47;100.00;99363.59;5152695;27;20054;-87
2023/01/10 07:56:12;;;;;;;19.00;5.30;;;;;;;5.19;100.00;99324.88;5134381;27;20043;-87
2023/01/10 07:58:39;;;;;;;19.10;5.35;;;;;;;5.20;100.00;99323.97;5134412;27;20094;-87
2023/01/10 08:01:06;;;;;;;12.10;3.72;;;;;;;5.19;100.00;99297.19;5132704;27;20039;-87
2023/01/10 08:03:34;;;;;;;25.00;4.72;;;;;;;5.40;100.00;99341.38;5134956;27;20053;-87
2023/01/10 08:06:04;;;;;;;20.02;4.45;;;;;;;5.16;100.00;99283.50;5134658;27;20078;-87
2023/01/10 08:08:32;;;;;;;17.48;4.03;;;;;;;5.31;100.00;99301.91;5115046;28;20171;-87
2023/01/10 08:11:01;;;;;;;15.13;3.85;;;;;;;5.28;100.00;99283.84;5126673;27;20039;-87
2023/01/10 08:13:29;;;;;;;14.20;4.13;;;;;;;5.04;100.00;99262.28;5130775;27;20050;-87
2023/01/10 08:15:55;;;;;;;18.83;4.32;;;;;;;5.26;100.00;99288.25;5126517;27;20050;-87
2023/01/10 08:18:24;;;;;;;15.60;3.40;;;;;;;5.12;100.00;99277.56;5137558;27;20064;-87
2023/01/10 08:20:52;;;;;;;14.68;4.20;;;;;;;5.54;100.00;99314.88;5154734;27;20372;-87
2023/01/10 08:23:19;;;;;;;14.65;3.60;;;;;;;5.22;100.00;99268.50;5155824;27;20050;-86
2023/01/10 08:25:47;;;;;;;20.27;4.15;;;;;;;5.48;100.00;99313.38;5138149;27;20062;-88
2023/01/10 08:28:14;;;;;;;19.80;3.80;;;;;;;5.53;100.00;99308.84;5137328;27;20121;-87
2023/01/10 08:30:41;;;;;;;13.70;5.00;;;;;;;5.32;100.00;99281.97;5137648;27;20051;-88
2023/01/10 08:33:09;;;;;;;21.42;4.28;;;;;;;5.47;100.00;99302.16;5137208;27;20057;-87
2023/01/10 08:35:41;;;;;;;20.23;4.55;;;;;;;5.31;100.00;99294.13;5137817;27;20043;-87
2023/01/10 08:38:09;;;;;;;15.23;3.97;;;;;;;5.54;100.00;99310.50;5156612;27;20385;-89
2023/01/10 08:40:36;;;;;;;17.02;4.07;;;;;;;5.32;100.00;99262.06;5127134;27;20057;-89
2023/01/10 08:43:06;;;;;;;14.88;3.50;;;;;;;5.56;100.00;99305.28;5136200;27;20049;-90
2023/01/10 08:45:33;;;;;;;16.75;3.38;;;;;;;5.31;100.00;99260.38;5135908;27;20051;-87
2023/01/10 08:48:01;;;;;;;20.15;3.88;;;;;;;5.43;100.00;99250.41;5133642;27;20408;-86
2023/01/10 08:50:27;;;;;;;14.95;3.50;;;;;;;5.43;100.00;99247.81;5117261;27;20090;-86
2023/01/10 08:52:57;;;;;;;14.82;3.72;;;;;;;5.43;100.00;99243.44;5131511;27;20088;-87
2023/01/10 08:55:25;;;;;;;20.52;5.38;;;;;;;5.70;100.00;99288.25;5135111;27;20129;-88
2023/01/10 08:57:52;;;;;;;11.95;3.17;;;;;;;5.61;100.00;99264.38;5137207;27;20463;-88
2023/01/10 09:00:19;;;;;;;16.08;3.60;;;;;;;5.64;100.00;99274.66;5137959;27;20043;-89
2023/01/10 09:02:46;;;;;;;11.77;4.25;;;;;;;5.59;100.00;99248.03;5138748;27;20042;-84
2023/01/10 09:05:13;;;;;;;17.17;3.72;;;;;;;5.66;100.00;99244.28;5139827;27;20074;-88
2023/01/10 09:07:57;;;;;;;14.90;3.42;;;;;;;5.89;100.00;99266.69;5135557;27;20039;-88
2023/01/10 09:10:25;;;;;;;11.23;3.03;;;;;;;5.65;100.00;99237.41;5148480;27;20046;-88
2023/01/10 09:12:55;;;;;;;11.73;3.40;;;;;;;5.58;100.00;99222.97;5136815;27;20395;-88
2023/01/10 09:15:24;;;;;;;15.38;4.22;;;;;;;5.55;100.00;99216.16;5134836;27;20381;-87
2023/01/10 09:17:59;;;;;;;15.68;3.45;;;;;;;5.42;100.00;99204.56;5139689;27;20051;-87
2023/01/10 09:20:27;;;;;;;21.33;3.53;;;;;;;5.58;100.00;99221.22;5156572;27;20050;-88
2023/01/10 09:22:55;;;;;;;13.38;3.83;;;;;;;5.64;100.00;99209.75;5138232;27;20055;-87
2023/01/10 09:25:23;;;;;;;14.70;3.42;;;;;;;5.67;100.00;99223.44;5132583;27;20070;-86
2023/01/10 09:27:58;;;;;;;9.38;2.80;;;;;;;5.46;100.00;99209.59;5148197;27;20051;-86
2023/01/10 09:30:27;;;;;;;13.98;3.55;;;;;;;5.71;100.00;99229.34;5138414;27;20054;-87
2023/01/10 09:32:54;;;;;;;15.05;2.80;;;;;;;5.60;100.00;99200.41;5155595;27;20046;-86
2023/01/10 09:35:23;;;;;;;16.98;2.70;;;;;;;5.48;100.00;99179.22;5131121;27;20043;-86
2023/01/10 09:37:54;;;;;;;17.83;2.75;;;;;;;5.30;100.00;99173.03;5156591;27;20053;-86
2023/01/10 09:40:49;;;;;;;10.10;2.80;;;;;;;5.39;100.00;99158.84;5138240;27;20484;-85
2023/01/10 09:43:34;;;;;;;8.70;2.08;;;;;;;5.73;100.00;99198.13;5119516;27;20046;-85
2023/01/10 09:46:14;;;;;;;15.85;3.53;;;;;;;5.49;100.00;99165.34;5134627;27;20092;-86
2023/01/10 09:48:50;;;;;;;13.15;3.10;;;;;;;5.41;100.00;99148.41;5136272;27;20088;-86
2023/01/10 09:51:39;;;;;;;12.25;3.15;;;;;;;5.51;100.00;99147.94;5136656;27;20050;-86
2023/01/10 09:54:13;;;;;;;16.88;3.30;;;;;;;5.39;100.00;99145.84;5123150;27;20046;-86
2023/01/10 09:56:40;;;;;;;14.53;3.27;;;;;;;5.47;100.00;99151.59;5126129;27;20051;-86
2023/01/10 09:59:24;;;;;;;16.85;4.10;;;;;;;5.53;100.00;99153.06;5148645;27;20043;-87
2023/01/10 10:01:58;;;;;;;17.70;2.97;;;;;;;5.69;100.00;99142.88;5134940;27;20047;-86
2023/01/10 10:04:35;;;;;;;16.15;3.45;;;;;;;5.55;100.00;99125.28;5154426;27;20054;-86
2023/01/10 10:07:06;;;;;;;15.20;3.50;;;;;;;5.64;100.00;99126.66;5136963;27;20171;-86
2023/01/10 10:09:34;;;;;;;15.73;3.80;;;;;;;5.50;100.00;99094.31;5136623;27;20050;-86
2023/01/10 10:12:28;;;;;;;12.30;3.00;;;;;;;5.60;100.00;99122.50;5128572;27;20046;-87
2023/01/10 10:15:14;;;;;;;15.85;2.80;;;;;;;5.78;100.00;99119.09;5119329;27;20042;-87
2023/01/10 10:17:47;;;;;;;17.13;3.03;;;;;;;5.58;100.00;99117.38;5124192;27;20463;-86
2023/01/10 10:20:22;;;;;;;11.38;3.15;;;;;;;5.60;100.00;99101.75;5139488;27;20061;-87
2023/01/10 10:23:16;;;;;;;13.40;2.33;;;;;;;5.58;100.00;99113.91;5135586;27;20408;-86
2023/01/10 10:26:01;;;;;;;10.18;1.83;;;;;;;5.58;100.00;99090.53;5124615;27;20069;-86
2023/01/10 10:28:57;;;;;;;10.20;3.17;;;;;;;5.39;100.00;99043.81;5134186;27;20100;-85
2023/01/10 10:31:37;;;;;;;7.35;2.00;;;;;;;5.37;100.00;99027.47;5134248;27;20400;-86
2023/01/10 10:34:22;;;;;;;5.47;2.10;;;;;;;5.70;100.00;99064.91;5116075;27;20130;-84
2023/01/10 10:37:16;;;;;;;13.45;4.88;;;;;;;5.73;100.00;99061.31;5129827;27;20055;-85
2023/01/10 10:39:52;;;;;;;12.90;2.50;;;;;;;5.42;100.00;99012.50;5132875;27;20046;-85
2023/01/10 10:42:20;;;;;;;10.68;2.65;;;;;;;5.67;100.00;99035.63;5135995;27;20050;-86
2023/01/10 10:45:05;;;;;;;13.05;2.58;;;;;;;5.75;100.00;99038.72;5154399;27;20057;-86
2023/01/10 10:47:34;;;;;;;11.38;2.33;;;;;;;5.64;100.00;98997.66;5136244;27;20065;-85
2023/01/10 10:50:13;;;;;;;15.27;3.00;;;;;;;5.92;100.00;99018.94;5142013;27;20074;-85
2023/01/10 10:52:41;;;;;;;13.00;3.75;;;;;;;5.62;100.00;98960.53;5135790;27;20050;-86
2023/01/10 10:55:17;;;;;;;9.65;2.10;;;;;;;5.99;100.00;98994.41;5124172;27;20043;-85
2023/01/10 10:57:46;;;;;;;14.57;3.10;;;;;;;5.88;100.00;98981.88;5121452;27;20450;-86
2023/01/10 11:00:26;;;;;;;13.93;2.85;;;;;;;5.84;100.00;98975.13;5133069;27;20097;-85
2023/01/10 11:03:02;;;;;;;13.85;3.10;;;;;;;5.78;100.00;98946.84;5147604;27;20490;-85
2023/01/10 11:05:38;;;;;;;12.10;2.88;;;;;;;5.87;100.00;98943.81;5154817;27;20042;-85
2023/01/10 11:08:11;;;;;;;14.48;2.33;;;;;;;5.63;100.00;98910.31;5136851;27;20055;-85
2023/01/10 11:10:40;;;;;;;12.95;2.80;;;;;;;5.59;100.00;98876.75;5135242;27;20055;-84
2023/01/10 11:13:28;;;;;;;9.88;2.28;;;;;;;5.73;100.00;98936.66;5121649;27;20385;-84
2023/01/10 11:15:55;;;;;;;9.05;2.42;;;;;;;5.61;100.00;98878.38;5132370;28;20464;-85
2023/01/10 11:18:24;;;;;;;10.13;2.55;;;;;;;5.45;100.00;98867.88;5132226;28;20059;-84
2023/01/10 11:20:59;;;;;;;10.68;2.63;;;;;;;5.77;100.00;98899.28;5147339;27;20065;-84
2023/01/10 11:23:34;;;;;;;12.93;2.20;;;;;;;5.68;100.00;98886.69;5136356;27;20400;-85
2023/01/10 11:26:02;;;;;;;11.10;2.95;;;;;;;5.72;100.00;98841.53;5136042;27;20043;-84
2023/01/10 11:28:31;;;;;;;15.70;3.85;;;;;;;5.43;100.00;98796.16;5144743;27;20050;-84
2023/01/10 11:30:59;;;;;;;14.63;2.58;;;;;;;5.63;100.00;98800.41;5153791;27;20457;-84
2023/01/10 11:33:38;;;;;;;8.43;2.53;;;;;;;5.85;100.00;98810.59;5135665;27;20051;-84
2023/01/10 11:36:11;;;;;;;15.48;3.13;;;;;;;5.65;100.00;98767.44;5136294;27;20043;-84
2023/01/10 11:38:39;;;;;;;15.10;2.70;;;;;;;5.79;100.00;98777.13;5153453;27;20046;-85
2023/01/10 11:41:23;;;;;;;14.98;2.67;;;;;;;5.60;100.00;98783.22;5135659;27;20422;-85
2023/01/10 11:43:50;;;;;;;15.18;2.60;;;;;;;5.59;100.00;98770.31;5132890;27;20042;-84
2023/01/10 11:46:20;;;;;;;11.23;2.65;;;;;;;5.75;100.00;98768.63;5132536;27;20043;-82
2023/01/10 11:49:00;;;;;;;12.38;2.50;;;;;;;6.00;100.00;98786.50;5146951;27;20134;-81
2023/01/10 11:51:36;;;;;;;17.63;3.10;;;;;;;5.66;100.00;98775.13;5146120;27;20133;-81
2023/01/10 11:54:11;;;;;;;14.13;2.97;;;;;;;5.86;100.00;98779.34;5148259;27;20054;-81